createdAt,value
2022-09-24T00:00:45.660Z,57.46
2022-09-24T00:01:47.142Z,57.42
2022-09-24T00:02:48.698Z,57.22
2022-09-24T00:03:53.751Z,57.46
2022-09-24T00:04:55.236Z,57.61
2022-09-24T00:06:01.064Z,57.42
2022-09-24T00:07:02.553Z,57.56
2022-09-24T00:08:04.175Z,57.61
2022-09-24T00:09:05.663Z,57.66
2022-09-24T00:10:07.279Z,57.55
2022-09-24T00:11:10.863Z,57.78
2022-09-24T00:12:13.210Z,57.80
2022-09-24T00:13:15.866Z,57.71
2022-09-24T00:14:17.350Z,57.84
2022-09-24T00:15:18.792Z,57.82
2022-09-24T00:16:21.048Z,57.68
2022-09-24T00:17:22.653Z,57.68
2022-09-24T00:18:24.327Z,57.81
2022-09-24T00:19:25.781Z,57.80
2022-09-24T00:20:29.444Z,57.81
2022-09-24T00:21:31.643Z,57.70
2022-09-24T00:22:33.096Z,57.83
2022-09-24T00:23:34.568Z,57.77
2022-09-24T00:24:54.586Z,57.62
2022-09-24T00:26:14.840Z,57.75
2022-09-24T00:27:16.281Z,57.91
2022-09-24T00:28:17.788Z,57.80
2022-09-24T00:29:22.915Z,57.88
2022-09-24T00:30:24.386Z,57.68
2022-09-24T00:31:26.054Z,57.64
2022-09-24T00:32:27.525Z,57.81
2022-09-24T00:33:29.016Z,57.95
2022-09-24T00:34:30.506Z,57.74
2022-09-24T00:35:32.692Z,57.95
2022-09-24T00:36:34.148Z,57.83
2022-09-24T00:37:35.627Z,57.90
2022-09-24T00:38:37.084Z,57.65
2022-09-24T00:39:39.744Z,57.61
2022-09-24T00:40:41.407Z,57.79
2022-09-24T00:41:45.363Z,57.67
2022-09-24T00:42:46.813Z,57.79
2022-09-24T00:43:48.773Z,57.72
2022-09-24T00:44:54.044Z,57.68
2022-09-24T00:46:03.347Z,57.91
2022-09-24T00:47:04.904Z,57.69
2022-09-24T00:48:07.775Z,57.73
2022-09-24T00:49:12.837Z,57.57
2022-09-24T00:50:17.485Z,57.83
2022-09-24T00:51:20.257Z,57.60
2022-09-24T00:52:21.749Z,57.74
2022-09-24T00:53:23.300Z,57.69
2022-09-24T00:54:26.708Z,57.73
2022-09-24T00:55:30.766Z,57.89
2022-09-24T00:56:32.671Z,58.01
2022-09-24T00:57:34.978Z,57.90
2022-09-24T00:58:36.415Z,57.92
2022-09-24T00:59:38.060Z,57.80
2022-09-24T01:00:39.608Z,57.84
2022-09-24T01:01:41.194Z,57.82
2022-09-24T01:02:43.430Z,57.90
2022-09-24T01:03:45.172Z,58.02
2022-09-24T01:04:46.942Z,57.85
2022-09-24T01:05:48.424Z,57.90
2022-09-24T01:06:49.925Z,58.12
2022-09-24T01:07:51.586Z,58.02
2022-09-24T01:08:53.607Z,58.12
2022-09-24T01:09:55.099Z,57.92
2022-09-24T01:10:59.195Z,58.13
2022-09-24T01:12:08.010Z,58.07
2022-09-24T01:13:14.992Z,58.37
2022-09-24T01:14:16.431Z,58.22
2022-09-24T01:15:28.207Z,58.28
2022-09-24T01:16:39.205Z,58.21
2022-09-24T01:17:48.072Z,58.35
2022-09-24T01:18:55.287Z,58.51
2022-09-24T01:20:15.356Z,58.42
2022-09-24T01:21:30.528Z,58.57
2022-09-24T01:22:37.728Z,58.52
2022-09-24T01:23:48.798Z,58.62
2022-09-24T01:25:20.689Z,58.61
2022-09-24T01:26:46.984Z,58.86
2022-09-24T01:28:04.851Z,58.70
2022-09-24T01:29:25.170Z,58.74
2022-09-24T01:30:32.243Z,58.78
2022-09-24T01:31:38.795Z,59.12
2022-09-24T01:32:41.315Z,59.07
2022-09-24T01:33:42.811Z,59.08
2022-09-24T01:34:52.660Z,59.05
2022-09-24T01:35:55.331Z,59.04
2022-09-24T01:36:57.299Z,59.31
2022-09-24T01:38:00.125Z,59.26
2022-09-24T01:39:01.739Z,59.29
2022-09-24T01:40:03.751Z,59.29
2022-09-24T01:41:05.236Z,59.31
2022-09-24T01:42:06.663Z,59.14
2022-09-24T01:43:08.715Z,59.10
2022-09-24T01:44:10.264Z,59.10
2022-09-24T01:45:12.058Z,59.16
2022-09-24T01:46:13.649Z,59.18
2022-09-24T01:47:19.491Z,59.13
2022-09-24T01:48:21.790Z,59.14
2022-09-24T01:49:23.288Z,59.14
2022-09-24T01:50:24.835Z,59.08
2022-09-24T01:51:30.882Z,59.45
2022-09-24T01:52:34.594Z,59.62
2022-09-24T01:53:37.256Z,59.65
2022-09-24T01:54:39.367Z,59.78
2022-09-24T01:55:43.064Z,59.94
2022-09-24T01:56:48.306Z,60.03
2022-09-24T01:57:50.754Z,59.94
2022-09-24T01:58:56.342Z,59.90
2022-09-24T02:00:00.062Z,59.88
2022-09-24T02:01:10.219Z,59.85
2022-09-24T02:02:50.211Z,59.62
2022-09-24T02:03:53.542Z,59.66
2022-09-24T02:05:17.917Z,59.67
2022-09-24T02:06:21.098Z,59.53
2022-09-24T02:07:42.604Z,59.62
2022-09-24T02:08:45.293Z,59.83
2022-09-24T02:09:47.408Z,59.56
2022-09-24T02:11:00.739Z,59.63
2022-09-24T02:12:17.173Z,59.50
2022-09-24T02:13:18.694Z,59.47
2022-09-24T02:14:20.308Z,59.61
2022-09-24T02:15:23.527Z,59.50
2022-09-24T02:16:26.559Z,59.51
2022-09-24T02:17:28.928Z,59.51
2022-09-24T02:18:31.948Z,59.53
2022-09-24T02:19:34.195Z,59.40
2022-09-24T02:20:36.110Z,59.33
2022-09-24T02:21:37.750Z,59.16
2022-09-24T02:22:39.339Z,59.21
2022-09-24T02:23:41.876Z,59.18
2022-09-24T02:24:50.282Z,59.22
2022-09-24T02:26:02.397Z,59.29
2022-09-24T02:27:03.862Z,59.29
2022-09-24T02:28:05.294Z,59.40
2022-09-24T02:29:07.436Z,59.38
2022-09-24T02:30:10.212Z,59.43
2022-09-24T02:31:13.204Z,59.33
2022-09-24T02:32:15.338Z,59.35
2022-09-24T02:33:35.392Z,59.38
2022-09-24T02:34:38.906Z,59.39
2022-09-24T02:35:40.769Z,59.34
2022-09-24T02:36:43.252Z,59.33
2022-09-24T02:37:44.866Z,59.23
2022-09-24T02:38:46.827Z,59.29
2022-09-24T02:39:48.370Z,59.33
2022-09-24T02:40:50.499Z,59.33
2022-09-24T02:41:53.784Z,59.38
2022-09-24T02:42:55.255Z,59.35
2022-09-24T02:43:56.719Z,59.38
2022-09-24T02:45:00.259Z,59.39
2022-09-24T02:46:02.096Z,59.35
2022-09-24T02:47:03.779Z,59.40
2022-09-24T02:48:05.227Z,59.43
2022-09-24T02:49:06.706Z,59.35
2022-09-24T02:50:08.415Z,59.38
2022-09-24T02:51:09.924Z,59.42
2022-09-24T02:52:12.000Z,59.54
2022-09-24T02:53:13.617Z,59.46
2022-09-24T02:54:15.084Z,59.47
2022-09-24T02:55:16.784Z,59.43
2022-09-24T02:56:18.316Z,59.53
2022-09-24T02:57:19.822Z,59.45
2022-09-24T02:58:21.304Z,59.41
2022-09-24T02:59:22.777Z,59.47
2022-09-24T03:00:24.273Z,59.71
2022-09-24T03:01:25.897Z,59.71
2022-09-24T03:02:27.621Z,59.62
2022-09-24T03:03:29.355Z,59.73
2022-09-24T03:04:31.795Z,59.81
2022-09-24T03:05:33.519Z,59.89
2022-09-24T03:06:35.022Z,59.68
2022-09-24T03:07:36.499Z,59.76
2022-09-24T03:08:38.012Z,59.79
2022-09-24T03:09:39.499Z,59.59
2022-09-24T03:10:41.002Z,59.61
2022-09-24T03:11:42.540Z,59.44
2022-09-24T03:12:43.991Z,59.42
2022-09-24T03:13:45.676Z,59.52
2022-09-24T03:14:47.171Z,59.31
2022-09-24T03:15:48.692Z,59.37
2022-09-24T03:16:50.176Z,59.37
2022-09-24T03:17:51.717Z,59.48
2022-09-24T03:18:53.188Z,59.67
2022-09-24T03:19:54.769Z,59.58
2022-09-24T03:20:56.912Z,59.40
2022-09-24T03:21:58.382Z,59.49
2022-09-24T03:22:59.843Z,59.38
2022-09-24T03:24:01.456Z,59.47
2022-09-24T03:25:03.249Z,59.49
2022-09-24T03:26:04.729Z,59.51
2022-09-24T03:27:06.202Z,59.70
2022-09-24T03:28:07.675Z,59.52
2022-09-24T03:29:09.194Z,59.49
2022-09-24T03:30:29.618Z,59.65
2022-09-24T03:31:31.214Z,59.66
2022-09-24T03:32:33.809Z,59.52
2022-09-24T03:33:36.498Z,59.57
2022-09-24T03:34:37.966Z,59.58
2022-09-24T03:35:39.484Z,59.53
2022-09-24T03:36:40.931Z,59.68
2022-09-24T03:37:47.041Z,59.69
2022-09-24T03:38:51.384Z,59.62
2022-09-24T03:39:52.824Z,59.71
2022-09-24T03:40:54.392Z,59.78
2022-09-24T03:41:56.019Z,59.70
2022-09-24T03:42:57.503Z,59.68
2022-09-24T03:43:59.018Z,59.79
2022-09-24T03:45:00.618Z,59.58
2022-09-24T03:46:03.057Z,59.82
2022-09-24T03:47:04.556Z,59.92
2022-09-24T03:48:06.585Z,59.81
2022-09-24T03:49:08.320Z,59.97
2022-09-24T03:50:12.786Z,59.78
2022-09-24T03:51:15.151Z,59.89
2022-09-24T03:52:17.148Z,59.91
2022-09-24T03:53:18.807Z,59.72
2022-09-24T03:54:20.293Z,59.96
2022-09-24T03:55:21.806Z,59.88
2022-09-24T03:56:23.395Z,59.77
2022-09-24T03:57:24.839Z,59.78
2022-09-24T03:58:26.743Z,59.73
2022-09-24T03:59:28.207Z,59.91
2022-09-24T04:00:29.688Z,59.89
2022-09-24T04:01:33.236Z,59.93
2022-09-24T04:02:34.811Z,60.00
2022-09-24T04:03:36.394Z,60.00
2022-09-24T04:04:38.073Z,59.99
2022-09-24T04:05:40.196Z,60.00
2022-09-24T04:06:41.809Z,60.21
2022-09-24T04:07:43.856Z,60.27
2022-09-24T04:08:45.301Z,60.12
2022-09-24T04:09:46.766Z,60.28
2022-09-24T04:10:48.814Z,60.20
2022-09-24T04:11:52.500Z,60.25
2022-09-24T04:12:54.095Z,60.06
2022-09-24T04:13:55.622Z,60.19
2022-09-24T04:14:57.082Z,60.20
2022-09-24T04:16:02.469Z,60.05
2022-09-24T04:17:04.020Z,60.13
2022-09-24T04:18:05.582Z,60.21
2022-09-24T04:19:08.128Z,59.87
2022-09-24T04:20:10.771Z,59.95
2022-09-24T04:21:12.383Z,59.94
2022-09-24T04:22:14.047Z,60.10
2022-09-24T04:23:15.531Z,60.00
2022-09-24T04:24:17.095Z,59.85
2022-09-24T04:25:18.566Z,60.08
2022-09-24T04:26:21.097Z,60.03
2022-09-24T04:27:22.596Z,60.07
2022-09-24T04:28:25.270Z,60.23
2022-09-24T04:29:26.733Z,60.24
2022-09-24T04:30:28.489Z,60.07
2022-09-24T04:31:30.068Z,60.19
2022-09-24T04:32:31.609Z,60.16
2022-09-24T04:33:33.269Z,60.12
2022-09-24T04:34:34.745Z,60.07
2022-09-24T04:35:36.348Z,60.21
2022-09-24T04:36:37.839Z,60.34
2022-09-24T04:37:39.292Z,60.30
2022-09-24T04:38:40.897Z,60.48
2022-09-24T04:39:42.404Z,60.33
2022-09-24T04:40:45.425Z,60.65
2022-09-24T04:41:47.886Z,60.50
2022-09-24T04:42:49.359Z,60.87
2022-09-24T04:43:51.366Z,60.94
2022-09-24T04:44:56.011Z,61.11
2022-09-24T04:45:59.375Z,60.83
2022-09-24T04:47:02.173Z,61.10
2022-09-24T04:48:03.738Z,61.07
2022-09-24T04:49:05.246Z,60.78
2022-09-24T04:50:07.490Z,60.91
2022-09-24T04:51:08.964Z,60.75
2022-09-24T04:52:10.435Z,60.80
2022-09-24T04:53:12.031Z,60.77
2022-09-24T04:54:13.585Z,60.97
2022-09-24T04:55:15.216Z,60.86
2022-09-24T04:56:16.678Z,60.96
2022-09-24T04:57:18.167Z,60.85
2022-09-24T04:58:19.646Z,60.94
2022-09-24T04:59:21.920Z,61.04
2022-09-24T05:00:23.390Z,61.27
2022-09-24T05:01:24.928Z,61.03
2022-09-24T05:02:26.591Z,61.13
2022-09-24T05:03:28.143Z,61.14
2022-09-24T05:04:30.245Z,61.17
2022-09-24T05:05:34.393Z,61.02
2022-09-24T05:06:36.268Z,60.97
2022-09-24T05:07:37.700Z,61.17
2022-09-24T05:08:39.210Z,61.10
2022-09-24T05:09:40.672Z,60.97
2022-09-24T05:10:42.191Z,61.11
2022-09-24T05:11:43.688Z,60.94
2022-09-24T05:12:45.159Z,60.96
2022-09-24T05:13:46.631Z,61.19
2022-09-24T05:14:48.702Z,61.13
2022-09-24T05:15:50.583Z,61.24
2022-09-24T05:16:52.203Z,61.11
2022-09-24T05:17:53.682Z,61.24
2022-09-24T05:18:55.439Z,61.12
2022-09-24T05:19:58.009Z,61.15
2022-09-24T05:20:59.569Z,61.26
2022-09-24T05:22:01.048Z,61.31
2022-09-24T05:23:02.519Z,61.36
2022-09-24T05:24:04.026Z,61.35
2022-09-24T05:25:05.762Z,61.49
2022-09-24T05:26:25.782Z,61.51
2022-09-24T05:27:27.276Z,61.38
2022-09-24T05:28:28.748Z,61.56
2022-09-24T05:29:30.221Z,61.54
2022-09-24T05:30:31.695Z,61.67
2022-09-24T05:31:33.290Z,61.81
2022-09-24T05:32:36.683Z,61.66
2022-09-24T05:33:38.151Z,61.58
2022-09-24T05:34:41.345Z,61.70
2022-09-24T05:35:42.806Z,61.63
2022-09-24T05:36:44.352Z,61.59
2022-09-24T05:37:47.759Z,61.72
2022-09-24T05:38:49.192Z,61.73
2022-09-24T05:39:50.750Z,61.70
2022-09-24T05:40:52.344Z,61.99
2022-09-24T05:41:53.948Z,62.03
2022-09-24T05:42:59.488Z,61.88
2022-09-24T05:44:01.498Z,61.77
2022-09-24T05:45:02.968Z,61.88
2022-09-24T05:46:04.524Z,62.03
2022-09-24T05:47:06.368Z,62.11
2022-09-24T05:48:07.891Z,62.03
2022-09-24T05:49:09.560Z,62.19
2022-09-24T05:50:11.472Z,62.09
2022-09-24T05:51:12.936Z,62.21
2022-09-24T05:52:14.403Z,62.11
2022-09-24T05:53:15.925Z,62.20
2022-09-24T05:54:17.808Z,62.23
2022-09-24T05:55:19.252Z,62.24
2022-09-24T05:56:20.724Z,62.21
2022-09-24T05:57:22.199Z,62.09
2022-09-24T05:58:23.652Z,62.22
2022-09-24T05:59:25.121Z,62.27
2022-09-24T06:00:26.558Z,62.42
2022-09-24T06:01:30.067Z,62.41
2022-09-24T06:02:31.690Z,62.41
2022-09-24T06:03:33.243Z,62.59
2022-09-24T06:04:34.700Z,62.46
2022-09-24T06:05:36.215Z,62.74
2022-09-24T06:06:37.698Z,62.71
2022-09-24T06:07:39.188Z,62.76
2022-09-24T06:08:40.619Z,62.70
2022-09-24T06:09:42.259Z,62.61
2022-09-24T06:10:45.453Z,62.71
2022-09-24T06:11:49.119Z,62.72
2022-09-24T06:12:52.758Z,62.87
2022-09-24T06:13:54.204Z,62.93
2022-09-24T06:14:55.650Z,62.95
2022-09-24T06:16:00.937Z,63.11
2022-09-24T06:17:02.408Z,62.99
2022-09-24T06:18:04.331Z,63.08
2022-09-24T06:19:05.899Z,62.87
2022-09-24T06:20:07.596Z,63.01
2022-09-24T06:21:10.564Z,62.96
2022-09-24T06:22:12.196Z,63.05
2022-09-24T06:23:14.199Z,63.14
2022-09-24T06:24:15.967Z,63.17
2022-09-24T06:25:17.476Z,63.10
2022-09-24T06:26:18.963Z,63.18
2022-09-24T06:27:20.439Z,63.23
2022-09-24T06:28:21.902Z,63.25
2022-09-24T06:29:23.433Z,63.20
2022-09-24T06:30:24.902Z,63.22
2022-09-24T06:31:26.370Z,64.00
2022-09-24T06:32:27.903Z,64.10
2022-09-24T06:33:30.521Z,63.96
2022-09-24T06:34:32.056Z,63.89
2022-09-24T06:35:34.075Z,63.73
2022-09-24T06:36:35.815Z,63.48
2022-09-24T06:37:37.317Z,63.54
2022-09-24T06:38:41.930Z,63.33
2022-09-24T06:39:43.428Z,63.33
2022-09-24T06:40:51.125Z,63.27
2022-09-24T06:41:53.112Z,63.38
2022-09-24T06:42:57.673Z,63.42
2022-09-24T06:43:59.190Z,63.44
2022-09-24T06:45:00.777Z,63.39
2022-09-24T06:46:03.665Z,63.55
2022-09-24T06:47:05.133Z,63.84
2022-09-24T06:48:06.673Z,63.74
2022-09-24T06:49:08.279Z,63.85
2022-09-24T06:50:09.864Z,64.03
2022-09-24T06:51:11.346Z,64.08
2022-09-24T06:52:13.124Z,64.33
2022-09-24T06:53:14.641Z,64.22
2022-09-24T06:54:16.156Z,64.14
2022-09-24T06:55:17.616Z,64.28
2022-09-24T06:56:19.099Z,64.46
2022-09-24T06:57:23.227Z,64.61
2022-09-24T06:58:27.094Z,64.57
2022-09-24T06:59:28.565Z,64.64
2022-09-24T07:00:29.987Z,64.72
2022-09-24T07:01:31.584Z,64.81
2022-09-24T07:02:33.194Z,64.59
2022-09-24T07:03:35.120Z,64.71
2022-09-24T07:04:36.581Z,64.76
2022-09-24T07:05:43.200Z,64.79
2022-09-24T07:07:03.968Z,64.78
2022-09-24T07:08:05.499Z,64.74
2022-09-24T07:09:07.087Z,64.58
2022-09-24T07:10:08.687Z,64.66
2022-09-24T07:11:10.183Z,64.54
2022-09-24T07:12:11.709Z,64.53
2022-09-24T07:13:13.368Z,64.51
2022-09-24T07:14:15.482Z,64.70
2022-09-24T07:15:17.035Z,64.89
2022-09-24T07:16:18.497Z,65.15
2022-09-24T07:17:20.044Z,65.42
2022-09-24T07:18:21.621Z,65.38
2022-09-24T07:19:23.070Z,65.44
2022-09-24T07:20:28.049Z,65.45
2022-09-24T07:21:29.491Z,65.12
2022-09-24T07:22:30.943Z,64.99
2022-09-24T07:23:32.450Z,65.00
2022-09-24T07:24:34.091Z,64.73
2022-09-24T07:25:35.804Z,64.53
2022-09-24T07:26:37.268Z,64.26
2022-09-24T07:27:39.180Z,64.16
2022-09-24T07:28:40.652Z,63.88
2022-09-24T07:29:42.211Z,64.00
2022-09-24T07:30:43.683Z,63.35
2022-09-24T07:31:45.206Z,62.96
2022-09-24T07:32:46.684Z,62.69
2022-09-24T07:33:48.147Z,62.87
2022-09-24T07:34:49.601Z,62.86
2022-09-24T07:35:51.159Z,62.71
2022-09-24T07:36:52.653Z,62.09
2022-09-24T07:38:00.441Z,62.28
2022-09-24T07:39:02.163Z,61.95
2022-09-24T07:40:03.683Z,61.97
2022-09-24T07:41:07.996Z,61.97
2022-09-24T07:42:09.735Z,61.80
2022-09-24T07:43:13.965Z,61.47
2022-09-24T07:44:15.819Z,61.76
2022-09-24T07:45:17.485Z,61.85
2022-09-24T07:46:20.196Z,61.76
2022-09-24T07:47:21.716Z,61.60
2022-09-24T07:48:23.648Z,61.57
2022-09-24T07:49:25.110Z,61.37
2022-09-24T07:50:27.474Z,61.21
2022-09-24T07:51:28.969Z,61.26
2022-09-24T07:52:30.415Z,61.05
2022-09-24T07:53:34.772Z,61.16
2022-09-24T07:54:36.308Z,61.34
2022-09-24T07:55:40.502Z,61.21
2022-09-24T07:56:41.931Z,61.06
2022-09-24T07:57:47.485Z,61.41
2022-09-24T07:58:49.967Z,61.05
2022-09-24T07:59:51.555Z,61.32
2022-09-24T08:00:53.049Z,61.60
2022-09-24T08:01:54.535Z,61.47
2022-09-24T08:02:56.641Z,61.10
2022-09-24T08:03:59.419Z,60.93
2022-09-24T08:05:02.471Z,61.26
2022-09-24T08:06:04.358Z,60.58
2022-09-24T08:07:05.810Z,59.68
2022-09-24T08:08:07.304Z,59.98
2022-09-24T08:09:08.771Z,59.57
2022-09-24T08:10:10.229Z,59.64
2022-09-24T08:11:13.318Z,59.53
2022-09-24T08:12:14.759Z,59.61
2022-09-24T08:13:16.291Z,60.07
2022-09-24T08:14:17.791Z,59.54
2022-09-24T08:15:19.263Z,59.64
2022-09-24T08:16:23.756Z,59.72
2022-09-24T08:17:25.403Z,59.37
2022-09-24T08:18:27.096Z,59.96
2022-09-24T08:19:30.919Z,59.69
2022-09-24T08:20:32.560Z,59.25
2022-09-24T08:21:34.033Z,59.00
2022-09-24T08:22:35.994Z,59.16
2022-09-24T08:23:37.748Z,59.20
2022-09-24T08:24:39.172Z,59.16
2022-09-24T08:25:40.655Z,59.00
2022-09-24T08:26:42.235Z,59.03
2022-09-24T08:27:43.723Z,59.22
2022-09-24T08:28:45.147Z,58.77
2022-09-24T08:29:46.910Z,58.78
2022-09-24T08:30:48.611Z,59.19
2022-09-24T08:31:50.124Z,59.29
2022-09-24T08:32:51.604Z,59.21
2022-09-24T08:33:53.068Z,59.21
2022-09-24T08:34:54.526Z,58.77
2022-09-24T08:35:56.006Z,58.67
2022-09-24T08:36:57.601Z,58.91
2022-09-24T08:38:01.275Z,59.03
2022-09-24T08:39:02.751Z,59.04
2022-09-24T08:40:04.547Z,59.09
2022-09-24T08:41:14.636Z,59.08
2022-09-24T08:42:34.519Z,58.96
2022-09-24T08:43:51.349Z,59.16
2022-09-24T08:45:11.747Z,59.07
2022-09-24T08:46:44.148Z,59.02
2022-09-24T08:48:02.992Z,58.89
2022-09-24T08:49:04.883Z,59.02
2022-09-24T08:50:13.808Z,59.38
2022-09-24T08:51:17.865Z,59.29
2022-09-24T08:52:37.995Z,59.37
2022-09-24T08:53:45.334Z,59.23
2022-09-24T08:54:46.783Z,59.19
2022-09-24T08:55:54.371Z,59.10
2022-09-24T08:56:56.051Z,59.06
2022-09-24T08:58:05.088Z,59.10
2022-09-24T08:59:11.482Z,59.24
2022-09-24T09:00:15.916Z,59.10
2022-09-24T09:01:29.538Z,59.36
2022-09-24T09:02:40.264Z,59.64
2022-09-24T09:03:45.161Z,59.55
2022-09-24T09:04:49.749Z,59.69
2022-09-24T09:06:09.309Z,59.65
2022-09-24T09:07:10.724Z,59.39
2022-09-24T09:08:41.461Z,59.18
2022-09-24T09:09:49.705Z,59.61
2022-09-24T09:10:52.166Z,59.78
2022-09-24T09:11:58.923Z,59.84
2022-09-24T09:13:02.682Z,60.10
2022-09-24T09:14:23.401Z,60.33
2022-09-24T09:15:25.780Z,59.98
2022-09-24T09:16:33.957Z,60.18
2022-09-24T09:17:48.131Z,59.98
2022-09-24T09:18:50.486Z,59.52
2022-09-24T09:19:58.294Z,58.71
2022-09-24T09:21:05.941Z,57.60
2022-09-24T09:22:10.147Z,57.25
2022-09-24T09:23:16.691Z,57.29
2022-09-24T09:24:18.933Z,57.58
2022-09-24T09:25:21.846Z,57.17
2022-09-24T09:26:24.908Z,57.20
2022-09-24T09:27:26.352Z,56.54
2022-09-24T09:28:27.902Z,56.42
2022-09-24T09:29:30.760Z,55.47
2022-09-24T09:30:43.600Z,55.39
2022-09-24T09:31:55.441Z,54.59
2022-09-24T09:33:02.571Z,53.96
2022-09-24T09:34:39.142Z,53.92
2022-09-24T09:35:47.136Z,54.28
2022-09-24T09:37:03.744Z,54.78
2022-09-24T09:38:05.194Z,53.51
2022-09-24T09:39:29.945Z,53.34
2022-09-24T09:40:46.881Z,53.07
2022-09-24T09:41:50.545Z,52.42
2022-09-24T09:42:52.416Z,52.33
2022-09-24T09:43:55.418Z,52.30
2022-09-24T09:44:56.927Z,52.32
2022-09-24T09:46:17.139Z,52.10
2022-09-24T09:47:32.842Z,52.80
2022-09-24T09:48:55.533Z,53.25
2022-09-24T09:49:57.625Z,53.37
2022-09-24T09:50:59.967Z,53.49
2022-09-24T09:52:02.787Z,53.30
2022-09-24T09:53:05.044Z,53.11
2022-09-24T09:54:06.539Z,53.07
2022-09-24T09:55:08.249Z,52.56
2022-09-24T09:56:09.687Z,52.44
2022-09-24T09:57:18.380Z,52.45
2022-09-24T09:58:21.894Z,52.77
2022-09-24T09:59:28.835Z,52.97
2022-09-24T10:00:34.501Z,53.02
2022-09-24T10:01:37.099Z,52.68
2022-09-24T10:02:38.661Z,52.98
2022-09-24T10:03:52.430Z,53.03
2022-09-24T10:04:58.044Z,53.15
2022-09-24T10:06:01.039Z,52.98
2022-09-24T10:07:09.434Z,52.95
2022-09-24T10:08:23.909Z,53.24
2022-09-24T10:09:25.371Z,53.41
2022-09-24T10:10:27.474Z,53.55
2022-09-24T10:11:28.942Z,53.68
2022-09-24T10:12:30.475Z,53.83
2022-09-24T10:13:32.292Z,53.55
2022-09-24T10:14:33.798Z,53.54
2022-09-24T10:15:35.432Z,53.48
2022-09-24T10:16:40.350Z,53.34
2022-09-24T10:17:41.912Z,53.38
2022-09-24T10:18:43.355Z,53.43
2022-09-24T10:19:50.754Z,53.83
2022-09-24T10:20:52.475Z,53.97
2022-09-24T10:21:54.750Z,54.21
2022-09-24T10:22:57.488Z,54.20
2022-09-24T10:23:59.528Z,54.32
2022-09-24T10:25:01.657Z,54.16
2022-09-24T10:26:03.411Z,54.16
2022-09-24T10:27:14.644Z,54.21
2022-09-24T10:28:35.900Z,54.20
2022-09-24T10:29:56.021Z,54.09
2022-09-24T10:30:58.965Z,54.08
2022-09-24T10:32:00.617Z,54.53
2022-09-24T10:33:02.627Z,54.54
2022-09-24T10:34:04.509Z,54.58
2022-09-24T10:35:19.429Z,54.43
2022-09-24T10:36:24.713Z,54.34
2022-09-24T10:37:26.260Z,54.38
2022-09-24T10:38:28.554Z,54.34
2022-09-24T10:39:30.252Z,54.42
2022-09-24T10:40:38.318Z,54.40
2022-09-24T10:41:45.865Z,54.35
2022-09-24T10:42:54.287Z,54.48
2022-09-24T10:43:56.585Z,54.67
2022-09-24T10:45:01.304Z,54.66
2022-09-24T10:46:08.501Z,54.63
2022-09-24T10:47:10.195Z,54.59
2022-09-24T10:48:35.503Z,54.33
2022-09-24T10:49:44.070Z,53.96
2022-09-24T10:50:59.443Z,53.78
2022-09-24T10:52:03.860Z,53.91
2022-09-24T10:53:08.936Z,54.11
2022-09-24T10:54:28.431Z,54.01
2022-09-24T10:55:46.244Z,54.07
2022-09-24T10:56:51.557Z,53.92
2022-09-24T10:57:55.795Z,54.19
2022-09-24T10:59:00.232Z,54.14
2022-09-24T11:00:09.444Z,53.86
2022-09-24T11:01:18.703Z,53.80
2022-09-24T11:02:27.504Z,53.55
2022-09-24T11:03:34.956Z,53.95
2022-09-24T11:04:45.341Z,54.09
2022-09-24T11:05:52.327Z,54.25
2022-09-24T11:06:57.146Z,54.40
2022-09-24T11:08:01.034Z,54.03
2022-09-24T11:09:02.591Z,53.67
2022-09-24T11:10:09.182Z,54.01
2022-09-24T11:11:20.710Z,53.80
2022-09-24T11:12:31.357Z,53.99
2022-09-24T11:13:41.891Z,53.76
2022-09-24T11:14:51.369Z,53.61
2022-09-24T11:16:11.405Z,53.48
2022-09-24T11:17:35.945Z,53.58
2022-09-24T11:18:40.166Z,53.31
2022-09-24T11:19:54.656Z,53.05
2022-09-24T11:21:15.020Z,51.77
2022-09-24T11:22:39.596Z,51.79
2022-09-24T11:24:13.892Z,51.50
2022-09-24T11:25:21.392Z,52.32
2022-09-24T11:26:25.731Z,52.51
2022-09-24T11:27:36.297Z,52.57
2022-09-24T11:28:53.046Z,52.53
2022-09-24T11:30:10.154Z,52.80
2022-09-24T11:31:21.444Z,52.88
2022-09-24T11:32:29.355Z,53.08
2022-09-24T11:33:45.868Z,53.24
2022-09-24T11:34:53.436Z,53.39
2022-09-24T11:36:04.535Z,53.36
2022-09-24T11:37:26.539Z,53.53
2022-09-24T11:38:40.027Z,52.86
2022-09-24T11:39:47.628Z,52.50
2022-09-24T11:40:57.933Z,52.06
2022-09-24T11:42:03.503Z,52.54
2022-09-24T11:43:07.738Z,52.43
2022-09-24T11:44:11.274Z,52.36
2022-09-24T11:45:16.835Z,52.46
2022-09-24T11:46:34.365Z,52.31
2022-09-24T11:47:54.609Z,52.35
2022-09-24T11:49:11.307Z,52.11
2022-09-24T11:50:12.734Z,52.28
2022-09-24T11:51:26.499Z,51.83
2022-09-24T11:52:46.809Z,51.91
2022-09-24T11:53:55.697Z,51.72
2022-09-24T11:55:00.186Z,51.52
2022-09-24T11:56:02.263Z,51.83
2022-09-24T11:57:07.696Z,51.80
2022-09-24T11:58:09.325Z,52.20
2022-09-24T11:59:19.087Z,52.13
2022-09-24T12:00:20.690Z,52.54
2022-09-24T12:01:26.483Z,52.81
2022-09-24T12:02:28.059Z,52.37
2022-09-24T12:03:47.119Z,51.95
2022-09-24T12:04:51.449Z,51.36
2022-09-24T12:06:01.346Z,51.38
2022-09-24T12:07:06.143Z,51.45
2022-09-24T12:08:17.591Z,51.21
2022-09-24T12:09:30.916Z,50.54
2022-09-24T12:10:34.574Z,50.27
2022-09-24T12:11:37.019Z,51.11
2022-09-24T12:12:40.982Z,51.30
2022-09-24T12:13:45.110Z,51.04
2022-09-24T12:14:57.571Z,50.92
2022-09-24T12:16:07.380Z,50.79
2022-09-24T12:17:09.243Z,50.90
2022-09-24T12:18:25.008Z,50.73
2022-09-24T12:19:31.723Z,50.91
2022-09-24T12:20:34.502Z,50.82
2022-09-24T12:21:43.104Z,50.40
2022-09-24T12:22:44.602Z,50.66
2022-09-24T12:23:46.268Z,51.00
2022-09-24T12:24:54.325Z,50.55
2022-09-24T12:25:57.118Z,50.60
2022-09-24T12:26:59.843Z,50.52
2022-09-24T12:28:01.413Z,50.52
2022-09-24T12:29:41.808Z,50.79
2022-09-24T12:31:15.714Z,51.27
2022-09-24T12:32:35.892Z,51.60
2022-09-24T12:33:44.696Z,51.56
2022-09-24T12:34:50.910Z,51.74
2022-09-24T12:36:05.926Z,52.32
2022-09-24T12:37:09.271Z,52.94
2022-09-24T12:38:14.164Z,52.85
2022-09-24T12:39:15.703Z,52.37
2022-09-24T12:40:20.415Z,51.27
2022-09-24T12:41:21.939Z,51.05
2022-09-24T12:42:23.478Z,51.30
2022-09-24T12:43:37.023Z,51.12
2022-09-24T12:44:50.082Z,51.17
2022-09-24T12:45:55.702Z,51.08
2022-09-24T12:47:00.459Z,51.35
2022-09-24T12:48:02.004Z,51.23
2022-09-24T12:49:03.501Z,51.32
2022-09-24T12:50:05.330Z,51.48
2022-09-24T12:51:07.000Z,51.33
2022-09-24T12:52:18.484Z,51.25
2022-09-24T12:53:24.887Z,51.04
2022-09-24T12:54:35.716Z,50.96
2022-09-24T12:55:37.286Z,51.03
2022-09-24T12:56:39.026Z,50.90
2022-09-24T12:57:41.599Z,51.02
2022-09-24T12:58:43.686Z,50.83
2022-09-24T12:59:58.137Z,50.80
2022-09-24T13:01:26.030Z,50.99
2022-09-24T13:02:28.568Z,50.91
2022-09-24T13:03:36.839Z,50.77
2022-09-24T13:04:38.453Z,51.02
2022-09-24T13:05:39.908Z,50.90
2022-09-24T13:06:41.772Z,51.13
2022-09-24T13:07:44.174Z,51.23
2022-09-24T13:08:45.607Z,51.56
2022-09-24T13:09:47.182Z,51.57
2022-09-24T13:10:56.080Z,51.64
2022-09-24T13:12:01.533Z,51.38
2022-09-24T13:13:04.277Z,51.18
2022-09-24T13:14:05.782Z,51.22
2022-09-24T13:15:08.354Z,51.27
2022-09-24T13:16:19.481Z,51.56
2022-09-24T13:17:21.039Z,51.27
2022-09-24T13:18:25.271Z,51.65
2022-09-24T13:19:40.862Z,51.65
2022-09-24T13:20:47.628Z,52.18
2022-09-24T13:21:54.902Z,51.87
2022-09-24T13:22:57.332Z,51.93
2022-09-24T13:23:58.794Z,52.30
2022-09-24T13:25:09.312Z,52.38
2022-09-24T13:26:12.979Z,52.06
2022-09-24T13:27:21.821Z,52.32
2022-09-24T13:28:37.399Z,52.24
2022-09-24T13:29:42.159Z,52.60
2022-09-24T13:30:43.631Z,52.33
2022-09-24T13:31:47.811Z,52.54
2022-09-24T13:33:09.920Z,52.63
2022-09-24T13:34:11.420Z,52.82
2022-09-24T13:35:21.792Z,52.54
2022-09-24T13:36:33.825Z,52.40
2022-09-24T13:37:35.688Z,52.43
2022-09-24T13:38:37.676Z,52.49
2022-09-24T13:39:41.895Z,52.59
2022-09-24T13:40:43.602Z,52.53
2022-09-24T13:42:00.408Z,52.48
2022-09-24T13:43:05.608Z,52.78
2022-09-24T13:44:22.462Z,52.75
2022-09-24T13:45:24.145Z,52.63
2022-09-24T13:46:25.624Z,52.69
2022-09-24T13:47:28.499Z,52.74
2022-09-24T13:48:29.960Z,52.78
2022-09-24T13:49:32.313Z,52.70
2022-09-24T13:50:51.764Z,52.62
2022-09-24T13:51:58.199Z,53.14
2022-09-24T13:53:00.609Z,53.25
2022-09-24T13:54:08.191Z,53.45